createdAt,value
2023-03-20T00:01:14.653Z,97240.72
2023-03-20T00:03:41.429Z,97229.97
2023-03-20T00:06:24.775Z,97227.66
2023-03-20T00:08:52.968Z,97238.78
2023-03-20T00:11:27.453Z,97235.78
2023-03-20T00:13:56.629Z,97234.09
2023-03-20T00:16:23.455Z,97233.81
2023-03-20T00:18:50.120Z,97233.09
2023-03-20T00:21:17.712Z,97243.38
2023-03-20T00:23:44.331Z,97239.63
2023-03-20T00:26:13.682Z,97248.66
2023-03-20T00:28:44.524Z,97244.53
2023-03-20T00:31:31.160Z,97240.72
2023-03-20T00:34:02.749Z,97242.53
2023-03-20T00:36:29.455Z,97242.91
2023-03-20T00:38:56.296Z,97246.00
2023-03-20T00:41:26.283Z,97244.72
2023-03-20T00:43:58.286Z,97238.50
2023-03-20T00:46:25.123Z,97240.56
2023-03-20T00:48:51.813Z,97237.94
2023-03-20T00:51:18.826Z,97237.94
2023-03-20T00:53:45.653Z,97237.28
2023-03-20T00:56:33.420Z,97234.13
2023-03-20T00:59:01.102Z,97231.75
2023-03-20T01:01:28.501Z,97226.63
2023-03-20T01:03:55.167Z,97231.34
2023-03-20T01:06:21.851Z,97226.38
2023-03-20T01:08:48.485Z,97226.97
2023-03-20T01:11:15.641Z,97222.97
2023-03-20T01:13:42.290Z,97218.81
2023-03-20T01:16:21.671Z,97216.31
2023-03-20T01:18:49.453Z,97216.31
2023-03-20T01:21:16.378Z,97218.38
2023-03-20T01:23:43.067Z,97214.69
2023-03-20T01:26:35.827Z,97215.88
2023-03-20T01:29:03.201Z,97214.41
2023-03-20T01:31:29.887Z,97221.63
2023-03-20T01:33:56.506Z,97207.59
2023-03-20T01:36:23.238Z,97206.38
2023-03-20T01:38:55.421Z,97212.13
2023-03-20T01:41:22.628Z,97210.09
2023-03-20T01:43:49.260Z,97206.75
2023-03-20T01:46:27.173Z,97210.28
2023-03-20T01:48:53.799Z,97209.44
2023-03-20T01:51:21.775Z,97207.59
2023-03-20T01:53:51.317Z,97206.13
2023-03-20T01:56:18.093Z,97204.91
2023-03-20T01:58:47.104Z,97205.97
2023-03-20T02:01:13.975Z,97204.72
2023-03-20T02:03:40.812Z,97205.97
2023-03-20T02:06:07.701Z,97198.09
2023-03-20T02:08:46.735Z,97194.75
2023-03-20T02:11:13.458Z,97203.88
2023-03-20T02:13:40.088Z,97208.41
2023-03-20T02:16:16.678Z,97207.22
2023-03-20T02:18:44.980Z,97208.00
2023-03-20T02:21:42.088Z,97204.25
2023-03-20T02:24:34.060Z,97213.63
2023-03-20T02:27:29.928Z,97214.03
2023-03-20T02:30:17.931Z,97216.09
2023-03-20T02:33:08.125Z,97210.50
2023-03-20T02:35:43.492Z,97219.59
2023-03-20T02:38:31.616Z,97220.53
2023-03-20T02:41:25.120Z,97224.28
2023-03-20T02:43:57.824Z,97220.66
2023-03-20T02:46:39.609Z,97219.31
2023-03-20T02:49:30.057Z,97226.63
2023-03-20T02:52:09.806Z,97224.91
2023-03-20T02:54:57.252Z,97220.09
2023-03-20T02:57:35.236Z,97220.94
2023-03-20T03:00:15.993Z,97222.44
2023-03-20T03:03:11.543Z,97222.66
2023-03-20T03:05:48.685Z,97229.66
2023-03-20T03:08:15.568Z,97217.31
2023-03-20T03:10:44.840Z,97228.94
2023-03-20T03:13:14.142Z,97229.31
2023-03-20T03:15:43.002Z,97227.28
2023-03-20T03:18:13.358Z,97230.56
2023-03-20T03:20:39.973Z,97230.94
2023-03-20T03:23:06.691Z,97224.31
2023-03-20T03:25:36.319Z,97225.13
2023-03-20T03:28:15.204Z,97228.63
2023-03-20T03:30:41.899Z,97226.34
2023-03-20T03:33:08.449Z,97219.72
2023-03-20T03:35:35.836Z,97215.75
2023-03-20T03:38:16.127Z,97214.72
2023-03-20T03:40:50.223Z,97216.00
2023-03-20T03:43:36.439Z,97211.91
2023-03-20T03:46:07.697Z,97211.47
2023-03-20T03:48:38.729Z,97211.91
2023-03-20T03:51:11.168Z,97206.94
2023-03-20T03:53:40.441Z,97218.13
2023-03-20T03:56:11.633Z,97215.84
2023-03-20T03:58:41.839Z,97221.66
2023-03-20T04:01:09.025Z,97222.09
2023-03-20T04:03:38.728Z,97228.09
2023-03-20T04:06:05.561Z,97229.78
2023-03-20T04:08:32.419Z,97229.56
2023-03-20T04:10:59.123Z,97232.66
2023-03-20T04:13:25.934Z,97227.47
2023-03-20T04:15:52.591Z,97223.16
2023-03-20T04:18:19.357Z,97219.03
2023-03-20T04:20:46.443Z,97223.16
2023-03-20T04:23:13.918Z,97219.03
2023-03-20T04:25:40.537Z,97233.28
2023-03-20T04:28:07.409Z,97228.31
2023-03-20T04:30:34.051Z,97219.03
2023-03-20T04:33:00.709Z,97227.72
2023-03-20T04:35:27.478Z,97223.78
2023-03-20T04:37:54.252Z,97220.28
2023-03-20T04:40:20.887Z,97224.81
2023-03-20T04:42:47.611Z,97226.25
2023-03-20T04:45:14.272Z,97233.28
2023-03-20T04:47:40.886Z,97225.88
2023-03-20T04:50:07.896Z,97230.41
2023-03-20T04:52:34.629Z,97229.34
2023-03-20T04:55:01.316Z,97227.72
2023-03-20T04:57:27.927Z,97236.19
2023-03-20T04:59:54.672Z,97235.97
2023-03-20T05:02:21.452Z,97240.09
2023-03-20T05:04:48.175Z,97237.22
2023-03-20T05:07:14.914Z,97245.09
2023-03-20T05:09:41.523Z,97238.88
2023-03-20T05:12:08.820Z,97239.28
2023-03-20T05:14:35.483Z,97240.97
2023-03-20T05:17:02.245Z,97235.13
2023-03-20T05:19:31.641Z,97227.31
2023-03-20T05:21:58.362Z,97219.66
2023-03-20T05:24:24.981Z,97214.09
2023-03-20T05:26:51.650Z,97216.56
2023-03-20T05:29:18.312Z,97212.63
2023-03-20T05:31:44.970Z,97211.41
2023-03-20T05:34:11.623Z,97209.38
2023-03-20T05:36:38.255Z,97212.06
2023-03-20T05:39:05.131Z,97211.69
2023-03-20T05:41:32.177Z,97210.84
2023-03-20T05:43:59.010Z,97217.06
2023-03-20T05:46:25.771Z,97215.03
2023-03-20T05:48:52.465Z,97216.66
2023-03-20T05:51:19.121Z,97225.56
2023-03-20T05:53:45.749Z,97225.97
2023-03-20T05:56:12.408Z,97234.66
2023-03-20T05:58:39.090Z,97234.88
2023-03-20T06:01:06.054Z,97228.25
2023-03-20T06:03:32.807Z,97234.44
2023-03-20T06:05:59.439Z,97236.72
2023-03-20T06:08:26.139Z,97237.75
2023-03-20T06:10:53.445Z,97230.09
2023-03-20T06:13:20.068Z,97237.13
2023-03-20T06:15:46.854Z,97237.34
2023-03-20T06:18:13.518Z,97244.75
2023-03-20T06:20:40.234Z,97242.06
2023-03-20T06:23:06.881Z,97238.34
2023-03-20T06:25:33.744Z,97241.63
2023-03-20T06:28:00.561Z,97235.44
2023-03-20T06:30:27.344Z,97238.50
2023-03-20T06:32:54.116Z,97235.19
2023-03-20T06:35:20.803Z,97235.19
2023-03-20T06:37:47.484Z,97236.63
2023-03-20T06:40:14.315Z,97238.47
2023-03-20T06:42:40.953Z,97233.69
2023-03-20T06:45:07.902Z,97230.41
2023-03-20T06:47:34.533Z,97238.22
2023-03-20T06:50:01.384Z,97238.38
2023-03-20T06:52:28.326Z,97230.94
2023-03-20T06:54:55.055Z,97231.31
2023-03-20T06:57:21.714Z,97238.69
2023-03-20T06:59:48.427Z,97244.41
2023-03-20T07:02:15.124Z,97242.34
2023-03-20T07:04:41.898Z,97247.06
2023-03-20T07:07:08.928Z,97243.56
2023-03-20T07:09:35.782Z,97242.00
2023-03-20T07:12:02.577Z,97248.78
2023-03-20T07:14:29.480Z,97243.94
2023-03-20T07:16:56.313Z,97246.25
2023-03-20T07:19:23.105Z,97244.56
2023-03-20T07:21:49.791Z,97244.09
2023-03-20T07:24:16.598Z,97245.06
2023-03-20T07:26:43.286Z,97252.66
2023-03-20T07:29:09.914Z,97247.88
2023-03-20T07:31:36.602Z,97241.22
2023-03-20T07:34:03.216Z,97243.59
2023-03-20T07:36:29.857Z,97248.13
2023-03-20T07:38:56.510Z,97254.09
2023-03-20T07:41:23.332Z,97250.75
2023-03-20T07:43:49.967Z,97250.69
2023-03-20T07:46:16.694Z,97257.47
2023-03-20T07:48:43.455Z,97255.16
2023-03-20T07:51:10.586Z,97258.63
2023-03-20T07:53:39.548Z,97266.75
2023-03-20T07:56:06.549Z,97264.31
2023-03-20T07:58:33.189Z,97265.47
2023-03-20T08:00:59.824Z,97270.41
2023-03-20T08:03:26.608Z,97272.09
2023-03-20T08:05:54.001Z,97278.59
2023-03-20T08:08:20.979Z,97287.69
2023-03-20T08:10:47.726Z,97296.28
2023-03-20T08:13:14.359Z,97285.78
2023-03-20T08:15:41.004Z,97299.81
2023-03-20T08:18:08.030Z,97301.59
2023-03-20T08:20:34.681Z,97296.78
2023-03-20T08:23:01.530Z,97312.94
2023-03-20T08:25:28.370Z,97299.75
2023-03-20T08:27:54.990Z,97311.38
2023-03-20T08:30:21.771Z,97308.84
2023-03-20T08:32:48.468Z,97301.69
2023-03-20T08:35:31.482Z,97299.00
2023-03-20T08:37:59.221Z,97299.16
2023-03-20T08:40:26.084Z,97297.38
2023-03-20T08:42:52.728Z,97302.94
2023-03-20T08:45:19.612Z,97303.00
2023-03-20T08:47:49.080Z,97298.75
2023-03-20T08:50:16.328Z,97299.75
2023-03-20T08:52:42.977Z,97298.59
2023-03-20T08:55:13.148Z,97299.94
2023-03-20T08:57:40.635Z,97295.66
2023-03-20T09:00:08.057Z,97293.56
2023-03-20T09:02:36.816Z,97285.22
2023-03-20T09:05:03.672Z,97289.22
2023-03-20T09:07:30.330Z,97295.94
2023-03-20T09:09:57.030Z,97299.66
2023-03-20T09:12:23.657Z,97306.22
2023-03-20T09:14:50.693Z,97307.75
2023-03-20T09:17:17.499Z,97316.72
2023-03-20T09:19:44.274Z,97319.50
2023-03-20T09:22:12.868Z,97313.66
2023-03-20T09:24:39.495Z,97308.13
2023-03-20T09:27:06.205Z,97308.22
2023-03-20T09:29:32.912Z,97300.25
2023-03-20T09:31:59.533Z,97290.63
2023-03-20T09:34:26.193Z,97297.44
2023-03-20T09:36:52.814Z,97301.72
2023-03-20T09:39:19.546Z,97316.97
2023-03-20T09:41:57.147Z,97313.84
2023-03-20T09:44:33.518Z,97319.56
2023-03-20T09:47:18.852Z,97328.59
2023-03-20T09:50:07.216Z,97320.59
2023-03-20T09:52:43.434Z,97312.59
2023-03-20T09:55:15.181Z,97321.19
2023-03-20T09:57:43.612Z,97325.38
2023-03-20T10:00:17.607Z,97320.16
2023-03-20T10:02:47.071Z,97323.00
2023-03-20T10:05:19.851Z,97322.53
2023-03-20T10:07:46.508Z,97320.22
2023-03-20T10:10:14.268Z,97322.56
2023-03-20T10:13:08.118Z,97323.88
2023-03-20T10:15:37.673Z,97322.50
2023-03-20T10:18:23.067Z,97325.69
2023-03-20T10:20:59.700Z,97324.84
2023-03-20T10:23:35.448Z,97331.91
2023-03-20T10:26:28.476Z,97330.53
2023-03-20T10:28:59.210Z,97331.59
2023-03-20T10:31:47.033Z,97335.22
2023-03-20T10:34:32.230Z,97342.75
2023-03-20T10:37:04.267Z,97345.63
2023-03-20T10:40:07.989Z,97344.25
2023-03-20T10:42:38.005Z,97342.53
2023-03-20T10:45:08.486Z,97342.94
2023-03-20T10:47:36.789Z,97333.88
2023-03-20T10:50:06.501Z,97335.78
2023-03-20T10:52:34.815Z,97337.88
2023-03-20T10:55:07.015Z,97338.44
2023-03-20T10:57:35.398Z,97338.16
2023-03-20T11:00:02.075Z,97343.34
2023-03-20T11:02:29.734Z,97331.34
2023-03-20T11:04:56.848Z,97329.59
2023-03-20T11:07:27.988Z,97329.59
2023-03-20T11:10:06.807Z,97330.69
2023-03-20T11:12:39.391Z,97325.75
2023-03-20T11:15:26.124Z,97330.56
2023-03-20T11:18:02.093Z,97317.31
2023-03-20T11:20:40.053Z,97319.53
2023-03-20T11:23:07.396Z,97313.19
2023-03-20T11:25:35.251Z,97316.72
2023-03-20T11:28:26.904Z,97317.56
2023-03-20T11:31:11.451Z,97313.78
2023-03-20T11:33:39.141Z,97324.38
2023-03-20T11:36:11.391Z,97317.69
2023-03-20T11:38:43.640Z,97319.78
2023-03-20T11:41:28.848Z,97307.19
2023-03-20T11:43:55.712Z,97312.44
2023-03-20T11:46:23.244Z,97314.16
2023-03-20T11:49:05.467Z,97315.94
2023-03-20T11:51:32.278Z,97324.03
2023-03-20T11:54:05.284Z,97316.28
2023-03-20T11:56:33.541Z,97313.47
2023-03-20T11:59:10.317Z,97313.47
2023-03-20T12:01:58.300Z,97313.13
2023-03-20T12:04:34.623Z,97311.75
2023-03-20T12:07:10.327Z,97313.09
2023-03-20T12:09:43.922Z,97312.50
2023-03-20T12:12:17.668Z,97309.66
2023-03-20T12:14:53.399Z,97295.44
2023-03-20T12:17:35.139Z,97295.84
2023-03-20T12:20:08.150Z,97296.91
2023-03-20T12:22:49.471Z,97308.66
2023-03-20T12:25:23.806Z,97299.97
2023-03-20T12:27:55.791Z,97301.31
2023-03-20T12:30:39.887Z,97302.31
2023-03-20T12:33:10.398Z,97300.66
2023-03-20T12:35:38.677Z,97292.25
2023-03-20T12:38:17.822Z,97284.31
2023-03-20T12:40:44.557Z,97285.00
2023-03-20T12:43:27.092Z,97283.81
2023-03-20T12:46:00.282Z,97288.63
2023-03-20T12:49:06.870Z,97272.97
2023-03-20T12:52:11.519Z,97269.66
2023-03-20T12:54:58.419Z,97267.31
2023-03-20T12:57:50.649Z,97267.84
2023-03-20T13:00:43.507Z,97265.72
2023-03-20T13:03:31.957Z,97254.69
2023-03-20T13:06:04.666Z,97253.34
2023-03-20T13:09:04.230Z,97250.06
2023-03-20T13:11:46.034Z,97241.22
2023-03-20T13:14:24.772Z,97233.25
2023-03-20T13:16:56.640Z,97227.09
2023-03-20T13:20:02.762Z,97218.75
2023-03-20T13:22:32.827Z,97220.16
2023-03-20T13:25:24.902Z,97215.13
2023-03-20T13:28:00.503Z,97212.72
2023-03-20T13:30:30.298Z,97217.06
2023-03-20T13:33:15.552Z,97208.94
2023-03-20T13:36:00.652Z,97208.94
2023-03-20T13:38:29.974Z,97203.34
2023-03-20T13:41:00.599Z,97197.97
2023-03-20T13:43:39.855Z,97199.19
2023-03-20T13:46:13.206Z,97201.38
2023-03-20T13:48:41.669Z,97196.06
2023-03-20T13:51:20.358Z,97194.88
2023-03-20T13:54:24.616Z,97187.91
2023-03-20T13:56:57.891Z,97187.53
2023-03-20T13:59:33.545Z,97194.34
2023-03-20T14:02:31.578Z,97191.16
2023-03-20T14:05:19.157Z,97186.09
2023-03-20T14:07:47.092Z,97184.34
2023-03-20T14:10:22.964Z,97178.94
2023-03-20T14:12:57.582Z,97177.47
2023-03-20T14:15:28.335Z,97175.03
2023-03-20T14:17:55.450Z,97176.91
2023-03-20T14:20:35.482Z,97174.47
2023-03-20T14:23:02.682Z,97169.16
2023-03-20T14:25:29.834Z,97168.47
2023-03-20T14:28:14.575Z,97176.84
2023-03-20T14:30:45.265Z,97167.66
2023-03-20T14:33:14.883Z,97165.19
2023-03-20T14:35:51.820Z,97168.03
2023-03-20T14:38:27.802Z,97168.47
2023-03-20T14:41:15.389Z,97160.00
2023-03-20T14:43:50.966Z,97165.31
2023-03-20T14:46:42.524Z,97167.09
2023-03-20T14:49:45.512Z,97170.25
2023-03-20T14:52:15.049Z,97163.84
2023-03-20T14:54:41.745Z,97154.94
2023-03-20T14:57:18.703Z,97148.28
2023-03-20T14:59:48.823Z,97142.09
2023-03-20T15:02:27.220Z,97153.31
2023-03-20T15:04:53.831Z,97154.16
2023-03-20T15:07:25.397Z,97151.72
2023-03-20T15:09:53.865Z,97150.75
2023-03-20T15:12:21.509Z,97149.34
2023-03-20T15:14:55.811Z,97149.44
2023-03-20T15:17:24.398Z,97147.66
2023-03-20T15:19:51.171Z,97145.31
2023-03-20T15:22:19.537Z,97144.38
2023-03-20T15:24:56.053Z,97150.47
2023-03-20T15:27:24.281Z,97151.91
2023-03-20T15:29:54.863Z,97149.47
2023-03-20T15:32:21.615Z,97149.72
2023-03-20T15:34:48.422Z,97146.81
2023-03-20T15:37:16.126Z,97148.72
2023-03-20T15:39:47.083Z,97146.28
2023-03-20T15:42:15.939Z,97142.19
2023-03-20T15:44:45.013Z,97141.63
2023-03-20T15:47:21.173Z,97141.28
2023-03-20T15:49:55.738Z,97148.31
2023-03-20T15:52:41.915Z,97147.13
2023-03-20T15:55:17.989Z,97139.19
2023-03-20T15:57:44.608Z,97143.44
2023-03-20T16:00:20.053Z,97135.44
2023-03-20T16:02:48.518Z,97133.44
2023-03-20T16:05:16.108Z,97131.56
2023-03-20T16:07:42.826Z,97142.47
2023-03-20T16:10:21.907Z,97140.97
2023-03-20T16:12:52.178Z,97135.56
2023-03-20T16:15:18.908Z,97134.16
2023-03-20T16:17:46.799Z,97134.47
2023-03-20T16:20:14.868Z,97136.13
2023-03-20T16:22:41.608Z,97124.50
2023-03-20T16:25:12.429Z,97135.41
2023-03-20T16:27:39.201Z,97133.44
2023-03-20T16:30:07.829Z,97129.75
2023-03-20T16:32:42.654Z,97133.16
2023-03-20T16:35:19.273Z,97131.88
2023-03-20T16:37:52.856Z,97132.94
2023-03-20T16:40:19.404Z,97134.97
2023-03-20T16:42:46.105Z,97145.50
2023-03-20T16:45:28.916Z,97141.03
2023-03-20T16:48:21.605Z,97141.53
2023-03-20T16:50:48.335Z,97140.84
2023-03-20T16:53:16.974Z,97137.44
2023-03-20T16:55:48.349Z,97152.72
2023-03-20T16:58:17.882Z,97144.63
2023-03-20T17:00:50.909Z,97146.94
2023-03-20T17:03:53.669Z,97149.44
2023-03-20T17:06:20.228Z,97146.59
2023-03-20T17:09:13.733Z,97145.50
2023-03-20T17:11:40.944Z,97142.00
2023-03-20T17:14:07.552Z,97141.41
2023-03-20T17:16:34.287Z,97150.91
2023-03-20T17:19:02.528Z,97151.63
2023-03-20T17:21:29.388Z,97155.97
2023-03-20T17:23:56.314Z,97161.25
2023-03-20T17:26:23.009Z,97162.84
2023-03-20T17:28:49.791Z,97161.31
2023-03-20T17:31:17.008Z,97165.78
2023-03-20T17:33:43.945Z,97163.50
2023-03-20T17:36:31.425Z,97168.28
2023-03-20T17:38:58.404Z,97169.22
2023-03-20T17:41:25.138Z,97168.47
2023-03-20T17:43:52.125Z,97174.63
2023-03-20T17:46:19.452Z,97167.53
2023-03-20T17:48:49.678Z,97164.16
2023-03-20T17:51:16.572Z,97171.66
2023-03-20T17:53:43.286Z,97171.75
2023-03-20T17:56:13.325Z,97168.31
2023-03-20T17:58:40.129Z,97175.41
2023-03-20T18:01:07.145Z,97163.91
2023-03-20T18:03:33.935Z,97172.88
2023-03-20T18:06:00.708Z,97168.41
2023-03-20T18:08:27.791Z,97166.59
2023-03-20T18:10:54.587Z,97170.53
2023-03-20T18:13:22.132Z,97166.66
2023-03-20T18:15:50.081Z,97166.91
2023-03-20T18:18:17.002Z,97171.69
2023-03-20T18:20:43.691Z,97171.53
2023-03-20T18:23:10.358Z,97165.16
2023-03-20T18:25:37.042Z,97162.13
2023-03-20T18:28:05.814Z,97162.75
2023-03-20T18:30:34.565Z,97168.16
2023-03-20T18:33:01.755Z,97165.69
2023-03-20T18:35:28.456Z,97162.41
2023-03-20T18:37:55.069Z,97167.63
2023-03-20T18:40:29.492Z,97164.69
2023-03-20T18:42:56.267Z,97167.84
2023-03-20T18:45:23.185Z,97163.34
2023-03-20T18:47:49.930Z,97163.34
2023-03-20T18:50:26.943Z,97159.06
2023-03-20T18:52:54.378Z,97170.50
2023-03-20T18:55:21.279Z,97168.22
2023-03-20T18:57:47.934Z,97158.94
2023-03-20T19:00:27.664Z,97168.22
2023-03-20T19:02:54.999Z,97160.13
2023-03-20T19:05:22.333Z,97169.69
2023-03-20T19:07:49.077Z,97169.78
2023-03-20T19:10:24.590Z,97165.25
2023-03-20T19:12:51.678Z,97163.38
2023-03-20T19:15:19.168Z,97167.91
2023-03-20T19:17:45.819Z,97172.63
2023-03-20T19:20:42.256Z,97168.59
2023-03-20T19:23:12.950Z,97171.69
2023-03-20T19:25:39.743Z,97164.88
2023-03-20T19:28:06.429Z,97161.38
2023-03-20T19:30:33.864Z,97163.88
2023-03-20T19:33:00.598Z,97169.28
2023-03-20T19:38:15.678Z,97164.38
2023-03-20T19:40:43.752Z,97164.44
2023-03-20T19:43:10.844Z,97164.88
2023-03-20T19:45:39.112Z,97161.97
2023-03-20T19:48:16.600Z,97162.84
2023-03-20T19:50:43.804Z,97162.22
2023-03-20T19:53:11.271Z,97155.81
2023-03-20T19:55:38.373Z,97153.16
2023-03-20T19:58:05.276Z,97162.53
2023-03-20T20:00:57.024Z,97155.06
2023-03-20T20:03:23.156Z,97153.88
2023-03-20T20:05:50.447Z,97160.91
2023-03-20T20:08:28.281Z,97158.03
2023-03-20T20:11:00.088Z,97148.31
2023-03-20T20:13:28.603Z,97150.19
2023-03-20T20:15:55.306Z,97150.63
2023-03-20T20:18:22.915Z,97151.06
2023-03-20T20:21:31.982Z,97144.25
2023-03-20T20:23:36.752Z,97146.19
2023-03-20T20:26:03.665Z,97144.06
2023-03-20T20:28:30.420Z,97144.13
2023-03-20T20:30:57.104Z,97143.66
2023-03-20T20:33:28.754Z,97137.91
2023-03-20T20:36:34.400Z,97140.00
2023-03-20T20:38:51.002Z,97136.25
2023-03-20T20:41:18.341Z,97141.06
2023-03-20T20:46:32.019Z,97144.78
2023-03-20T20:49:06.973Z,97141.66
2023-03-20T20:51:39.658Z,97136.53
2023-03-20T20:54:06.330Z,97135.75
2023-03-20T20:56:33.278Z,97136.75
2023-03-20T20:58:59.901Z,97135.50
2023-03-20T21:01:26.585Z,97139.22
2023-03-20T21:03:53.264Z,97143.38
2023-03-20T21:06:19.929Z,97141.75
2023-03-20T21:08:46.591Z,97144.63
2023-03-20T21:11:13.596Z,97137.41
2023-03-20T21:13:40.548Z,97137.84
2023-03-20T21:16:07.560Z,97131.44
2023-03-20T21:18:34.706Z,97132.69
2023-03-20T21:21:08.672Z,97133.72
2023-03-20T21:23:35.410Z,97136.41
2023-03-20T21:26:02.153Z,97136.41
2023-03-20T21:28:28.810Z,97136.41
2023-03-20T21:31:20.960Z,97129.22
2023-03-20T21:33:42.239Z,97132.69
2023-03-20T21:36:09.913Z,97126.25
2023-03-20T21:39:08.583Z,97128.34
2023-03-20T21:41:23.763Z,97132.06
2023-03-20T21:43:50.386Z,97138.47
2023-03-20T21:49:56.415Z,97143.06
2023-03-20T21:52:45.814Z,97137.28
2023-03-20T22:03:06.091Z,97138.78
2023-03-20T22:09:20.199Z,97136.09
2023-03-20T22:12:07.717Z,97134.06
2023-03-20T22:14:43.470Z,97145.19
2023-03-20T22:20:22.712Z,97151.81
2023-03-20T22:23:18.422Z,97141.31
2023-03-20T22:34:25.644Z,97141.75
2023-03-20T22:36:57.561Z,97138.00
2023-03-20T22:39:34.109Z,97146.06
2023-03-20T22:44:58.543Z,97151.84
2023-03-20T22:47:20.828Z,97142.78
2023-03-20T22:49:47.502Z,97146.13
2023-03-20T22:52:29.170Z,97135.38
2023-03-20T22:55:00.830Z,97138.84
2023-03-20T22:57:38.777Z,97134.13
2023-03-20T23:00:09.414Z,97132.91
2023-03-20T23:02:36.641Z,97130.84
2023-03-20T23:05:03.333Z,97133.56
2023-03-20T23:07:29.976Z,97134.56
2023-03-20T23:09:56.688Z,97135.19
2023-03-20T23:12:23.311Z,97129.63
2023-03-20T23:14:49.976Z,97124.06
2023-03-20T23:17:16.675Z,97122.22
2023-03-20T23:19:54.310Z,97116.84
2023-03-20T23:22:28.531Z,97118.94
2023-03-20T23:24:57.361Z,97120.56
2023-03-20T23:27:26.642Z,97118.53
2023-03-20T23:29:53.320Z,97113.97
2023-03-20T23:32:20.021Z,97118.31
2023-03-20T23:34:46.769Z,97126.78
2023-03-20T23:37:13.516Z,97123.88
2023-03-20T23:39:40.244Z,97109.88
2023-03-20T23:42:20.341Z,97122.66
2023-03-20T23:44:56.529Z,97120.38
2023-03-20T23:47:27.698Z,97121.00
2023-03-20T23:49:56.598Z,97119.78
2023-03-20T23:52:23.254Z,97125.16
2023-03-20T23:54:50.169Z,97114.41
2023-03-20T23:57:16.776Z,97106.16
2023-03-20T23:59:43.472Z,97111.75
